Time;durP1;ratioP1;P1;durP2;ratioP2;P2;SDS_P1;SDS_P2;PMS_P1;PMS_P2;Temp;Humidity;BMP_temperature;BMP_pressure;BME280_temperature;BME280_humidity;BME280_pressure;Samples;Min_cycle;Max_cycle;Signal;HPM_P1;HPM_P2
2021/01/29 00:01:14;;;;;;;6.68;4.28;;;;;;;-2.83;90.48;97660.94;3439033;28;20053;-53
2021/01/29 00:02:57;;;;;;;10.95;5.43;;;;;;;-2.87;90.95;97659.09;3440424;28;20050;-48
2021/01/29 00:04:39;;;;;;;9.80;5.07;;;;;;;-2.90;90.86;97653.03;3437468;28;20061;-49
2021/01/29 00:06:21;;;;;;;9.45;4.82;;;;;;;-2.95;91.21;97646.94;3437243;28;20299;-48
2021/01/29 00:08:03;;;;;;;7.95;4.50;;;;;;;-3.03;90.66;97652.63;3439375;28;20050;-49
2021/01/29 00:09:44;;;;;;;7.03;4.07;;;;;;;-3.06;91.16;97649.13;3435367;28;20046;-49
2021/01/29 00:11:27;;;;;;;7.20;4.13;;;;;;;-3.10;91.33;97645.63;3439754;28;20049;-49
2021/01/29 00:13:10;;;;;;;11.13;4.97;;;;;;;-3.11;91.72;97643.03;3434814;28;20590;-48
2021/01/29 00:14:52;;;;;;;;;;;;;;;-3.15;91.84;97644.59;3438605;28;20054;-54
2021/01/29 00:16:34;;;;;;;8.73;3.90;;;;;;;-3.18;91.58;97636.91;3439536;28;19960;-51
2021/01/29 00:18:17;;;;;;;10.55;4.13;;;;;;;-3.21;91.92;97640.19;3435411;28;20354;-52
2021/01/29 00:19:59;;;;;;;8.68;4.07;;;;;;;-3.24;91.92;97635.00;3440847;28;20053;-50
2021/01/29 00:21:40;;;;;;;7.28;4.05;;;;;;;-3.25;92.39;97637.50;3436098;28;20046;-50
2021/01/29 00:23:22;;;;;;;6.55;3.75;;;;;;;-3.27;91.92;97629.84;3440621;28;20133;-47
2021/01/29 00:25:04;;;;;;;8.85;4.65;;;;;;;-3.27;92.51;97631.50;3438628;28;20046;-48
2021/01/29 00:26:46;;;;;;;10.40;4.97;;;;;;;-3.28;92.66;97630.66;3439732;28;20054;-49
2021/01/29 00:28:28;;;;;;;8.45;4.35;;;;;;;-3.29;92.41;97630.59;3439686;28;20051;-49
2021/01/29 00:30:13;;;;;;;9.25;5.32;;;;;;;-3.32;92.77;97626.28;3437213;28;20058;-51
2021/01/29 00:31:55;;;;;;;9.93;5.50;;;;;;;-3.32;92.91;97628.81;3440734;28;20055;-49
2021/01/29 00:33:37;;;;;;;8.88;3.80;;;;;;;-3.32;92.60;97626.28;3434220;28;20050;-49
2021/01/29 00:35:22;;;;;;;7.47;4.32;;;;;;;-3.31;92.72;97619.53;3440062;28;20081;-48
2021/01/29 00:37:03;;;;;;;16.13;5.57;;;;;;;-3.31;92.65;97620.38;3437920;28;20061;-48
2021/01/29 00:38:45;;;;;;;7.65;4.18;;;;;;;-3.30;92.55;97612.00;3439996;28;20046;-48
2021/01/29 00:40:27;;;;;;;9.30;3.85;;;;;;;-3.29;92.26;97610.31;3437200;28;20603;-49
2021/01/29 00:42:11;;;;;;;6.50;4.20;;;;;;;-3.30;92.13;97612.00;3437109;28;20140;-49
2021/01/29 00:43:53;;;;;;;8.60;4.35;;;;;;;-3.30;92.14;97614.53;3440406;28;20046;-47
2021/01/29 00:45:37;;;;;;;6.15;3.25;;;;;;;-3.32;91.74;97605.13;3438225;28;20055;-50
2021/01/29 00:47:18;;;;;;;;;;;;;;;-3.33;91.72;97603.41;3438187;28;20057;-50
2021/01/29 00:48:59;;;;;;;7.43;4.18;;;;;;;-3.36;91.71;97609.22;3438443;28;19926;-48
2021/01/29 00:50:42;;;;;;;9.60;4.43;;;;;;;-3.38;91.82;97603.25;3437850;28;20638;-49
2021/01/29 00:52:23;;;;;;;8.45;4.45;;;;;;;-3.39;91.89;97599.84;3439951;28;20496;-48
2021/01/29 00:54:05;;;;;;;10.52;5.28;;;;;;;-3.39;91.99;97604.06;3438130;28;20058;-48
2021/01/29 00:55:47;;;;;;;9.15;4.80;;;;;;;-3.40;91.97;97598.13;3440646;28;20042;-48
2021/01/29 00:57:29;;;;;;;10.27;4.68;;;;;;;-3.41;92.03;97603.16;3438238;28;20080;-48
2021/01/29 00:59:11;;;;;;;12.68;5.85;;;;;;;-3.42;92.08;97602.28;3439883;28;20132;-48
2021/01/29 01:00:52;;;;;;;10.80;5.47;;;;;;;-3.42;91.67;97602.28;3438750;28;20449;-48
2021/01/29 01:02:34;;;;;;;17.27;6.43;;;;;;;-3.44;91.88;97597.97;3438186;28;20046;-48
2021/01/29 01:04:16;;;;;;;9.30;4.18;;;;;;;-3.46;91.60;97592.84;3440291;28;21136;-48
2021/01/29 01:05:58;;;;;;;6.93;3.42;;;;;;;-3.48;91.55;97591.06;3434978;28;20522;-48
2021/01/29 01:07:40;;;;;;;8.75;4.13;;;;;;;-3.52;91.82;97589.22;3440348;28;20046;-48
2021/01/29 01:09:22;;;;;;;9.25;4.82;;;;;;;-3.55;91.32;97594.19;3437884;28;20053;-49
2021/01/29 01:11:04;;;;;;;8.25;4.22;;;;;;;-3.57;91.74;97591.59;3439571;28;20409;-50
2021/01/29 01:12:54;;;;;;;12.43;5.47;;;;;;;-3.59;91.64;97596.63;3439007;28;20055;-47
2021/01/29 01:14:35;;;;;;;7.63;4.28;;;;;;;-3.64;91.46;97585.47;3437976;28;20082;-48
2021/01/29 01:16:18;;;;;;;8.48;4.32;;;;;;;-3.67;91.42;97592.09;3435066;28;20120;-49
2021/01/29 01:18:01;;;;;;;8.95;4.13;;;;;;;-3.69;91.23;97586.13;3437956;28;20419;-48
2021/01/29 01:19:43;;;;;;;8.87;4.33;;;;;;;-3.71;91.27;97597.84;3440612;28;20046;-50
2021/01/29 01:21:24;;;;;;;11.32;4.30;;;;;;;-3.73;91.32;97599.47;3437787;28;20346;-48
2021/01/29 01:23:06;;;;;;;8.70;4.80;;;;;;;-3.78;91.44;97592.56;3439228;28;20051;-50
2021/01/29 01:24:48;;;;;;;9.90;4.72;;;;;;;-3.80;91.05;97603.44;3438835;28;20109;-50
2021/01/29 01:26:29;;;;;;;8.10;4.43;;;;;;;-3.83;91.33;97596.59;3437874;28;20058;-49
2021/01/29 01:28:12;;;;;;;8.68;3.90;;;;;;;-3.86;90.95;97603.22;3440348;28;20050;-48
2021/01/29 01:29:53;;;;;;;5.53;3.33;;;;;;;-3.89;90.80;97600.59;3435734;28;20053;-48
2021/01/29 01:31:35;;;;;;;5.57;2.97;;;;;;;-3.92;90.79;97593.75;3437614;28;20078;-48
2021/01/29 01:33:17;;;;;;;6.78;3.95;;;;;;;-3.91;91.07;97592.91;3437288;28;20085;-51
2021/01/29 01:34:59;;;;;;;6.35;3.72;;;;;;;-3.92;90.20;97595.41;3439348;28;20109;-48
2021/01/29 01:36:40;;;;;;;5.70;2.75;;;;;;;-3.94;90.04;97580.16;3438019;28;20054;-48
2021/01/29 01:38:22;;;;;;;6.82;3.38;;;;;;;-3.95;90.13;97588.56;3437610;28;20046;-49
2021/01/29 01:40:06;;;;;;;7.13;4.03;;;;;;;-3.95;89.85;97591.94;3440111;28;20124;-49
2021/01/29 01:41:47;;;;;;;6.43;3.83;;;;;;;-3.96;89.68;97581.75;3437937;28;20096;-49
2021/01/29 01:43:30;;;;;;;7.35;4.72;;;;;;;-3.96;89.81;97579.22;3439556;28;20058;-49
2021/01/29 01:45:50;;;;;;;7.97;4.28;;;;;;;-3.97;89.78;97575.84;3438166;28;20507;-47
2021/01/29 01:47:36;;;;;;;7.22;4.05;;;;;;;-3.96;89.32;97582.66;3440057;28;20054;-48
2021/01/29 01:49:19;;;;;;;8.10;3.97;;;;;;;-3.97;88.93;97580.91;3440541;28;20451;-48
2021/01/29 01:51:02;;;;;;;6.40;3.63;;;;;;;-3.98;88.58;97576.66;3437779;28;20585;-48
2021/01/29 01:52:44;;;;;;;5.75;3.22;;;;;;;-3.98;88.29;97566.53;3441588;28;20042;-51
2021/01/29 01:54:34;;;;;;;5.78;3.50;;;;;;;-3.99;87.90;97572.41;3440156;28;20046;-48
2021/01/29 01:56:21;;;;;;;6.13;3.42;;;;;;;-4.00;87.07;97575.72;3438708;28;20050;-48
2021/01/29 01:58:04;;;;;;;7.60;3.30;;;;;;;-4.01;87.55;97568.94;3442149;28;20316;-48
2021/01/29 01:59:51;;;;;;;8.32;3.65;;;;;;;-4.03;87.29;97562.09;3438530;28;20042;-48
2021/01/29 02:01:34;;;;;;;5.78;3.40;;;;;;;-4.07;86.73;97568.72;3438880;28;20046;-48
2021/01/29 02:03:19;;;;;;;7.90;3.78;;;;;;;-4.06;86.46;97572.13;3439273;28;20507;-47
2021/01/29 02:05:04;;;;;;;5.35;3.47;;;;;;;-4.07;86.17;97570.38;3440584;28;20050;-47
2021/01/29 02:06:54;;;;;;;6.95;3.33;;;;;;;-4.09;85.42;97557.66;3441019;28;20050;-51
2021/01/29 02:08:38;;;;;;;4.28;2.90;;;;;;;-4.11;84.59;97563.50;3438541;28;20050;-48
2021/01/29 02:10:20;;;;;;;4.35;2.88;;;;;;;-4.12;84.40;97562.63;3441134;28;20066;-47
2021/01/29 02:12:03;;;;;;;5.43;2.88;;;;;;;-4.14;83.84;97566.75;3439611;28;20054;-48
2021/01/29 02:13:45;;;;;;;6.32;2.88;;;;;;;-4.18;83.24;97559.88;3440513;28;20050;-48
2021/01/29 02:15:31;;;;;;;4.93;2.78;;;;;;;-4.21;82.53;97557.22;3441494;28;20077;-48
2021/01/29 02:17:25;;;;;;;4.07;2.10;;;;;;;-4.21;83.13;97555.53;3440383;28;20060;-47
2021/01/29 02:19:53;;;;;;;6.05;2.88;;;;;;;-4.25;82.92;97558.78;3440942;28;20058;-47
2021/01/29 02:22:17;;;;;;;5.82;2.90;;;;;;;-4.27;82.80;97551.94;3439460;28;20140;-49
2021/01/29 02:24:37;;;;;;;7.68;2.30;;;;;;;-4.29;82.73;97556.94;3401624;29;20094;-48
2021/01/29 02:26:59;;;;;;;4.70;2.60;;;;;;;-4.32;82.56;97545.84;3437512;28;20050;-47
2021/01/29 02:29:22;;;;;;;5.07;2.47;;;;;;;-4.37;82.51;97541.44;3438843;28;20514;-49
2021/01/29 02:31:23;;;;;;;3.65;2.30;;;;;;;-4.37;82.82;97550.72;3433331;28;20047;-47
2021/01/29 02:33:44;;;;;;;4.13;2.55;;;;;;;-4.42;82.83;97548.00;3441659;28;20058;-47
2021/01/29 02:36:09;;;;;;;9.00;2.70;;;;;;;-4.47;82.76;97548.63;3434452;28;20057;-48
2021/01/29 02:38:11;;;;;;;5.30;2.55;;;;;;;-4.47;82.82;97551.16;3439706;28;20046;-48
2021/01/29 02:40:09;;;;;;;5.13;2.50;;;;;;;-4.49;82.77;97543.53;3441962;28;20050;-48
2021/01/29 02:42:04;;;;;;;7.00;2.50;;;;;;;-4.51;82.66;97552.72;3440353;28;20089;-48
2021/01/29 02:44:04;;;;;;;3.83;2.97;;;;;;;-4.54;82.99;97558.53;3438900;28;20055;-48
2021/01/29 02:45:55;;;;;;;5.55;3.28;;;;;;;-4.55;83.26;97554.28;3441651;28;20562;-47
2021/01/29 02:47:48;;;;;;;4.90;3.00;;;;;;;-4.55;83.30;97554.28;3438768;28;20047;-48
2021/01/29 02:49:43;;;;;;;4.05;2.15;;;;;;;-4.57;83.21;97552.50;3440572;28;20061;-48
2021/01/29 02:51:32;;;;;;;3.95;2.40;;;;;;;-4.56;83.27;97554.22;3428776;28;20050;-49
2021/01/29 02:53:28;;;;;;;3.85;2.65;;;;;;;-4.58;83.16;97555.81;3438653;28;20065;-49
2021/01/29 02:55:18;;;;;;;3.35;2.05;;;;;;;-4.58;82.69;97554.16;3440756;28;20057;-49
2021/01/29 02:57:04;;;;;;;5.30;2.50;;;;;;;-4.61;82.26;97546.47;3441602;28;20116;-50
2021/01/29 02:58:53;;;;;;;3.80;2.08;;;;;;;-4.64;82.41;97546.34;3439914;28;20061;-49
2021/01/29 03:00:39;;;;;;;4.05;2.35;;;;;;;-4.68;82.27;97548.69;3442266;28;20046;-51
2021/01/29 03:02:25;;;;;;;4.07;2.40;;;;;;;-4.74;82.22;97547.63;3439658;28;20046;-49
2021/01/29 03:04:16;;;;;;;4.03;2.28;;;;;;;-4.80;82.07;97537.28;3439937;28;20064;-50
2021/01/29 03:06:05;;;;;;;3.35;2.15;;;;;;;-4.87;82.13;97542.91;3441055;28;20054;-52
2021/01/29 03:07:54;;;;;;;4.28;2.50;;;;;;;-4.92;82.53;97547.78;3439770;28;20046;-50
2021/01/29 03:09:43;;;;;;;5.38;2.63;;;;;;;-4.98;82.42;97537.47;3441344;28;20061;-51
2021/01/29 03:11:34;;;;;;;6.10;3.10;;;;;;;-5.03;82.29;97538.94;3439567;28;20470;-53
2021/01/29 03:13:20;;;;;;;4.03;2.72;;;;;;;-5.08;82.50;97529.47;3439796;28;20090;-50
2021/01/29 03:15:08;;;;;;;5.30;2.88;;;;;;;-5.16;82.78;97524.97;3442240;28;20077;-51
2021/01/29 03:16:53;;;;;;;5.70;3.33;;;;;;;-5.22;82.84;97522.19;3439730;28;20081;-51
2021/01/29 03:18:41;;;;;;;5.13;3.67;;;;;;;-5.26;83.23;97521.97;3441276;28;20526;-52
2021/01/29 03:20:28;;;;;;;5.28;3.45;;;;;;;-5.32;83.14;97525.13;3431160;28;20043;-53
2021/01/29 03:22:15;;;;;;;7.50;4.38;;;;;;;-5.39;83.71;97524.00;3432727;28;20108;-50
2021/01/29 03:24:02;;;;;;;10.90;5.10;;;;;;;-5.45;83.99;97521.25;3441950;28;20082;-50
2021/01/29 03:25:48;;;;;;;10.38;5.28;;;;;;;-5.47;84.20;97534.63;3438143;28;20050;-51
2021/01/29 03:27:37;;;;;;;10.23;4.90;;;;;;;-5.52;84.17;97530.22;3441163;28;20050;-50
2021/01/29 03:29:21;;;;;;;8.80;4.30;;;;;;;-5.57;84.62;97519.06;3439925;28;20050;-50
2021/01/29 03:31:05;;;;;;;10.02;5.05;;;;;;;-5.62;84.50;97524.72;3438450;28;20050;-52
2021/01/29 03:32:51;;;;;;;9.63;4.68;;;;;;;-5.66;84.71;97518.69;3428528;28;20571;-52
2021/01/29 03:34:37;;;;;;;8.60;4.30;;;;;;;-5.70;85.00;97519.38;3436477;28;20504;-52
2021/01/29 03:36:23;;;;;;;11.95;4.85;;;;;;;-5.74;85.23;97520.91;3441409;28;20050;-49
2021/01/29 03:38:12;;;;;;;14.35;5.72;;;;;;;-5.78;85.27;97520.69;3439585;28;20061;-51
2021/01/29 03:39:55;;;;;;;13.45;5.78;;;;;;;-5.82;85.39;97526.44;3439367;28;20046;-54
2021/01/29 03:41:40;;;;;;;12.23;6.07;;;;;;;-5.87;85.67;97524.53;3441403;28;20057;-50
2021/01/29 03:43:29;;;;;;;12.23;5.55;;;;;;;-5.92;86.18;97517.56;3439129;28;20046;-50
2021/01/29 03:45:20;;;;;;;11.32;6.00;;;;;;;-5.95;86.09;97525.91;3441195;28;20077;-50
2021/01/29 03:47:05;;;;;;;12.65;5.85;;;;;;;-5.99;86.30;97518.97;3439536;28;20431;-51
2021/01/29 03:48:55;;;;;;;11.65;4.88;;;;;;;-6.02;86.25;97517.97;3439377;28;20077;-51
2021/01/29 03:50:47;;;;;;;9.55;5.00;;;;;;;-6.05;86.42;97509.47;3441646;28;20058;-50
2021/01/29 03:52:40;;;;;;;11.55;5.30;;;;;;;-6.08;86.78;97513.53;3439403;28;20137;-48
2021/01/29 03:54:26;;;;;;;11.75;4.85;;;;;;;-6.10;86.84;97512.59;3440444;28;20108;-49
2021/01/29 03:56:28;;;;;;;9.90;4.53;;;;;;;-6.12;87.00;97515.06;3438446;28;20050;-52
2021/01/29 03:58:16;;;;;;;9.30;4.20;;;;;;;-6.14;87.25;97509.09;3438095;28;20055;-49
2021/01/29 04:00:12;;;;;;;8.55;4.50;;;;;;;-6.15;87.14;97525.00;3441077;28;20050;-50
2021/01/29 04:02:00;;;;;;;12.75;5.38;;;;;;;-6.18;87.39;97517.31;3439773;28;20078;-49
2021/01/29 04:03:48;;;;;;;15.05;4.97;;;;;;;-6.18;87.48;97524.91;3438038;28;20059;-49
2021/01/29 04:05:36;;;;;;;11.68;5.88;;;;;;;-6.19;87.78;97520.63;3441276;28;20062;-50
2021/01/29 04:07:22;;;;;;;13.68;7.28;;;;;;;-6.21;88.13;97514.66;3438882;28;20061;-52
2021/01/29 04:09:10;;;;;;;16.27;8.15;;;;;;;-6.23;88.15;97523.81;3439973;28;20054;-50
2021/01/29 04:10:55;;;;;;;18.70;8.10;;;;;;;-6.25;88.22;97530.47;3438263;28;20054;-50
2021/01/29 04:12:40;;;;;;;14.93;7.40;;;;;;;-6.26;88.02;97527.06;3439437;28;20077;-52
2021/01/29 04:14:31;;;;;;;14.15;8.00;;;;;;;-6.25;88.35;97525.44;3428126;28;20058;-49
2021/01/29 04:16:18;;;;;;;12.43;7.07;;;;;;;-6.28;88.31;97512.66;3437241;28;20050;-49
2021/01/29 04:18:07;;;;;;;14.88;6.07;;;;;;;-6.29;88.42;97519.38;3440662;28;20050;-50
2021/01/29 04:19:55;;;;;;;12.60;5.80;;;;;;;-6.29;88.53;97508.41;3438849;28;20058;-50
2021/01/29 04:21:42;;;;;;;14.32;6.75;;;;;;;-6.28;88.36;97512.66;3438688;28;20046;-50
2021/01/29 04:23:29;;;;;;;31.48;13.38;;;;;;;-6.29;88.40;97513.44;3441302;28;20084;-49
2021/01/29 04:25:17;;;;;;;56.83;18.60;;;;;;;-6.31;88.18;97517.56;3438746;28;20050;-48
2021/01/29 04:27:06;;;;;;;49.78;17.30;;;;;;;-6.34;88.29;97515.78;3439857;28;20057;-51
2021/01/29 04:28:53;;;;;;;24.42;11.25;;;;;;;-6.37;88.50;97512.25;3439471;28;20055;-51
2021/01/29 04:30:38;;;;;;;24.90;11.20;;;;;;;-6.41;88.24;97505.34;3437578;28;20046;-50
2021/01/29 04:32:24;;;;;;;20.73;9.75;;;;;;;-6.46;88.24;97513.56;3441285;28;20139;-52
2021/01/29 04:34:12;;;;;;;18.65;9.85;;;;;;;-6.48;88.32;97517.69;3438557;28;20050;-51
2021/01/29 04:35:58;;;;;;;17.83;8.60;;;;;;;-6.50;88.44;97521.81;3440238;28;20143;-50
2021/01/29 04:37:50;;;;;;;19.83;9.27;;;;;;;-6.53;88.38;97506.53;3439739;28;20391;-49
2021/01/29 04:39:36;;;;;;;17.77;9.15;;;;;;;-6.56;88.56;97508.03;3438541;28;20077;-52
2021/01/29 04:41:54;;;;;;;15.32;7.55;;;;;;;-6.55;88.79;97514.81;3440928;28;20089;-51
2021/01/29 04:43:48;;;;;;;16.35;7.82;;;;;;;-6.57;88.83;97512.25;3436574;28;20050;-51
2021/01/29 04:45:45;;;;;;;17.40;8.80;;;;;;;-6.56;88.84;97510.56;3438450;28;20062;-51
2021/01/29 04:47:36;;;;;;;16.27;7.30;;;;;;;-6.58;88.73;97492.84;3440550;28;20058;-52
2021/01/29 04:49:30;;;;;;;13.80;7.50;;;;;;;-6.58;89.01;97499.56;3438721;28;20050;-50
2021/01/29 04:51:41;;;;;;;15.18;8.05;;;;;;;-6.54;89.25;97496.38;3438631;28;20133;-50
2021/01/29 04:54:22;;;;;;;14.95;7.05;;;;;;;-6.47;89.22;97513.50;3440463;28;20129;-50
2021/01/29 04:56:27;;;;;;;19.45;9.45;;;;;;;-6.37;89.12;97507.22;3427562;28;20062;-54
2021/01/29 04:58:13;;;;;;;16.55;8.20;;;;;;;-6.30;88.71;97502.50;3438032;28;20056;-50
2021/01/29 05:00:33;;;;;;;15.77;8.27;;;;;;;-6.24;88.69;97487.63;3439836;28;20057;-49
2021/01/29 05:02:43;;;;;;;14.02;7.55;;;;;;;-6.20;88.50;97483.56;3427194;28;20058;-50
2021/01/29 05:05:06;;;;;;;17.90;8.05;;;;;;;-6.15;88.13;97504.81;3438968;28;20478;-53
2021/01/29 05:07:08;;;;;;;20.73;8.80;;;;;;;-6.12;88.13;97492.34;3405202;28;20057;-50
2021/01/29 05:09:09;;;;;;;17.88;8.65;;;;;;;-6.10;87.94;97489.91;3436949;28;20050;-50
2021/01/29 05:11:30;;;;;;;18.98;9.50;;;;;;;-6.07;88.01;97482.47;3427584;28;20055;-49
2021/01/29 05:13:42;;;;;;;40.05;15.38;;;;;;;-6.03;87.92;97483.44;3423747;28;20050;-50
2021/01/29 05:15:36;;;;;;;31.85;15.23;;;;;;;-6.01;87.77;97486.91;3434923;28;20046;-50
2021/01/29 05:18:07;;;;;;;32.92;13.82;;;;;;;-5.97;87.75;97493.78;3438379;28;20050;-49
2021/01/29 05:20:01;;;;;;;21.77;9.77;;;;;;;-5.95;87.71;97494.72;3425867;28;20051;-51
2021/01/29 05:21:58;;;;;;;18.60;8.35;;;;;;;-5.91;87.67;97501.66;3431809;28;20497;-49
2021/01/29 05:24:09;;;;;;;23.25;10.13;;;;;;;-5.89;87.89;97490.81;3431982;28;20420;-51
2021/01/29 05:26:34;;;;;;;23.77;10.27;;;;;;;-5.83;87.61;97490.19;3427644;28;20065;-49
2021/01/29 05:28:30;;;;;;;30.77;11.27;;;;;;;-5.79;87.78;97488.66;3412153;28;20152;-50
2021/01/29 05:30:30;;;;;;;26.23;12.57;;;;;;;-5.77;87.10;97489.63;3437991;28;20081;-51
2021/01/29 05:32:42;;;;;;;36.38;12.88;;;;;;;-5.73;87.30;97493.97;3442431;28;20101;-50
2021/01/29 05:34:38;;;;;;;33.13;12.98;;;;;;;-5.72;87.15;97481.44;3431596;28;20054;-53
2021/01/29 05:36:35;;;;;;;26.05;13.10;;;;;;;-5.69;86.67;97471.47;3440426;28;20112;-51
2021/01/29 05:38:54;;;;;;;27.95;12.80;;;;;;;-5.66;86.22;97478.28;3440770;28;20144;-52
2021/01/29 05:41:30;;;;;;;25.23;11.25;;;;;;;-5.65;86.07;97477.50;3429576;28;20057;-51
2021/01/29 05:43:52;;;;;;;27.02;12.05;;;;;;;-5.63;86.02;97473.38;3385213;29;20086;-52
2021/01/29 05:45:50;;;;;;;27.48;11.98;;;;;;;-5.62;86.41;97477.59;3424499;28;20560;-50
2021/01/29 05:47:59;;;;;;;25.70;12.07;;;;;;;-5.59;86.27;97472.69;3438102;28;20047;-51
2021/01/29 05:49:56;;;;;;;28.05;12.80;;;;;;;-5.59;86.35;97475.22;3442740;28;20507;-50
2021/01/29 05:52:27;;;;;;;23.52;11.70;;;;;;;-5.57;86.65;97483.69;3440772;28;20057;-49
2021/01/29 05:54:44;;;;;;;29.67;14.85;;;;;;;-5.55;87.15;97481.25;3440480;28;20113;-51
2021/01/29 05:56:38;;;;;;;33.40;14.55;;;;;;;-5.54;87.21;97473.75;3437723;28;20086;-52
2021/01/29 05:58:53;;;;;;;29.33;12.90;;;;;;;-5.51;87.23;97466.28;3442575;28;20050;-52
2021/01/29 06:01:00;;;;;;;24.48;11.50;;;;;;;-5.50;86.95;97470.53;3440280;28;20046;-50
2021/01/29 06:03:05;;;;;;;26.58;11.13;;;;;;;-5.45;87.15;97458.09;3407180;28;20048;-52
2021/01/29 06:05:15;;;;;;;27.35;11.52;;;;;;;-5.45;87.53;97457.25;3430776;28;20066;-50
2021/01/29 06:07:29;;;;;;;30.13;15.00;;;;;;;-5.47;87.45;97448.75;3440627;28;20073;-53
2021/01/29 06:09:39;;;;;;;30.75;13.80;;;;;;;-5.49;87.75;97449.53;3438256;28;20518;-53
2021/01/29 06:11:49;;;;;;;32.45;14.40;;;;;;;-5.48;87.87;97447.84;3429846;28;20054;-51
2021/01/29 06:14:06;;;;;;;33.25;14.23;;;;;;;-5.48;87.59;97440.28;3441908;28;20055;-51
2021/01/29 06:16:01;;;;;;;34.92;14.85;;;;;;;-5.46;87.90;97435.28;3442425;28;20054;-52
2021/01/29 06:18:16;;;;;;;37.47;15.93;;;;;;;-5.48;88.08;97432.69;3440053;28;20054;-53
2021/01/29 06:20:30;;;;;;;36.60;16.15;;;;;;;-5.48;88.38;97440.28;3419383;28;20046;-53
2021/01/29 06:22:45;;;;;;;44.00;18.05;;;;;;;-5.49;88.74;97451.19;3428824;28;20528;-51
2021/01/29 06:24:53;;;;;;;;;;;;;;;-5.47;88.87;97458.84;3440443;28;20062;-51
2021/01/29 06:27:03;;;;;;;37.70;16.55;;;;;;;-5.49;89.52;97456.25;3440025;28;19929;-53
2021/01/29 06:29:20;;;;;;;29.63;12.65;;;;;;;-5.49;90.21;97459.63;3440788;28;20101;-51
2021/01/29 06:31:39;;;;;;;49.33;17.40;;;;;;;-5.50;90.77;97459.56;3434038;28;20046;-52
2021/01/29 06:34:01;;;;;;;36.38;16.40;;;;;;;-5.50;90.85;97465.47;3439994;28;20050;-53
2021/01/29 06:36:11;;;;;;;31.45;14.50;;;;;;;-5.50;91.25;97454.50;3438713;28;20054;-50
2021/01/29 06:38:08;;;;;;;30.02;12.68;;;;;;;-5.47;91.67;97462.22;3439892;28;20046;-50
2021/01/29 06:40:08;;;;;;;40.75;18.10;;;;;;;-5.46;92.13;97463.06;3429430;28;20050;-49
2021/01/29 06:42:04;;;;;;;44.47;18.35;;;;;;;-5.44;92.29;97467.41;3438151;28;20046;-52
2021/01/29 06:44:00;;;;;;;36.70;13.70;;;;;;;-5.43;92.26;97461.53;3439472;28;20074;-54
2021/01/29 06:46:14;;;;;;;48.42;19.50;;;;;;;-5.38;92.24;97457.53;3442076;28;20050;-52
2021/01/29 06:48:23;;;;;;;40.55;16.33;;;;;;;-5.37;92.25;97451.69;3420940;28;20050;-50
2021/01/29 06:50:30;;;;;;;36.90;14.75;;;;;;;-5.32;91.96;97456.91;3439410;28;20049;-51
2021/01/29 06:52:48;;;;;;;41.92;17.20;;;;;;;-5.30;91.99;97461.25;3438369;28;20558;-52
2021/01/29 06:54:53;;;;;;;38.35;16.23;;;;;;;-5.24;91.85;97449.66;3440480;28;20061;-50
2021/01/29 06:57:06;;;;;;;43.60;18.17;;;;;;;-5.20;91.61;97461.59;3440727;28;20089;-52
2021/01/29 06:59:07;;;;;;;40.75;18.08;;;;;;;-5.17;91.57;97454.13;3438748;28;20554;-51
2021/01/29 07:01:18;;;;;;;46.90;19.33;;;;;;;-5.14;91.20;97457.66;3437286;28;20474;-54
2021/01/29 07:03:54;;;;;;;40.05;14.90;;;;;;;-5.09;91.06;97445.16;3440035;28;20504;-53
2021/01/29 07:05:53;;;;;;;;;;;;;;;-5.04;91.01;97448.75;3441138;28;20046;-50
2021/01/29 07:08:00;;;;;;;40.60;16.58;;;;;;;-5.00;90.83;97437.06;3436387;28;20424;-50
2021/01/29 07:10:08;;;;;;;39.97;17.10;;;;;;;-4.97;90.60;97435.53;3437956;28;20050;-51
2021/01/29 07:12:03;;;;;;;43.65;16.73;;;;;;;-4.93;90.64;97433.94;3441406;28;20101;-52
2021/01/29 07:14:09;;;;;;;50.45;20.52;;;;;;;-4.90;90.54;97445.03;3438575;28;20440;-49
2021/01/29 07:16:09;;;;;;;56.85;23.83;;;;;;;-4.86;90.39;97440.09;3437814;28;20082;-52
2021/01/29 07:18:15;;;;;;;52.13;19.20;;;;;;;-4.83;90.37;97435.16;3441643;28;20054;-53
2021/01/29 07:20:04;;;;;;;;;;;;;;;-4.78;90.49;97428.63;3426520;28;20077;-52
2021/01/29 07:22:18;;;;;;;44.47;18.92;;;;;;;-4.73;90.38;97419.53;3438497;28;19980;-53
2021/01/29 07:24:30;;;;;;;36.45;14.68;;;;;;;-4.67;90.21;97419.75;3440548;28;20128;-55
2021/01/29 07:26:20;;;;;;;38.63;15.40;;;;;;;-4.61;90.21;97421.63;3438184;28;20050;-51
2021/01/29 07:28:17;;;;;;;38.80;16.95;;;;;;;-4.57;89.97;97423.50;3438468;28;20081;-50
2021/01/29 07:30:42;;;;;;;39.50;14.40;;;;;;;-4.51;90.26;97423.69;3441325;28;20058;-54
2021/01/29 07:32:37;;;;;;;35.05;15.63;;;;;;;-4.46;90.32;97417.13;3413974;28;20551;-53
2021/01/29 07:34:32;;;;;;;39.72;15.93;;;;;;;-4.42;90.12;97423.16;3439648;28;20050;-51
2021/01/29 07:36:40;;;;;;;40.22;17.35;;;;;;;-4.38;90.34;97417.44;3441476;28;20050;-50
2021/01/29 07:39:03;;;;;;;40.30;17.33;;;;;;;-4.35;90.49;97405.75;3441189;28;20046;-51
2021/01/29 07:41:01;;;;;;;41.40;16.55;;;;;;;-4.30;90.89;97415.16;3430687;28;20427;-54
2021/01/29 07:43:00;;;;;;;39.20;16.00;;;;;;;-4.28;90.77;97414.38;3439355;28;20059;-53
2021/01/29 07:44:54;;;;;;;47.25;19.48;;;;;;;-4.26;91.09;97417.84;3441318;28;20050;-50
2021/01/29 07:46:59;;;;;;;41.50;17.42;;;;;;;-4.25;91.03;97408.59;3438884;28;20051;-51
2021/01/29 07:48:52;;;;;;;38.25;17.50;;;;;;;-4.22;91.30;97404.50;3437810;28;20073;-55
2021/01/29 07:50:41;;;;;;;54.17;20.95;;;;;;;-4.20;91.46;97402.88;3440647;28;20566;-54
2021/01/29 07:52:33;;;;;;;51.80;23.27;;;;;;;-4.18;91.23;97405.47;3438882;28;20082;-50
2021/01/29 07:54:48;;;;;;;44.58;19.33;;;;;;;-4.15;91.07;97415.69;3438488;28;20050;-53
2021/01/29 07:56:51;;;;;;;53.97;20.48;;;;;;;-4.11;91.18;97409.06;3439318;28;20503;-51
2021/01/29 07:58:47;;;;;;;49.17;23.27;;;;;;;-4.11;91.10;97407.38;3439522;28;20526;-52
2021/01/29 08:00:42;;;;;;;36.10;15.00;;;;;;;-4.04;91.19;97418.59;3439442;28;20073;-54
2021/01/29 08:02:41;;;;;;;57.78;21.73;;;;;;;-4.01;91.36;97406.91;3441886;28;20055;-55
2021/01/29 08:04:46;;;;;;;49.60;20.08;;;;;;;-3.96;91.06;97410.44;3439353;28;20086;-54
2021/01/29 08:06:32;;;;;;;51.63;19.75;;;;;;;-3.90;91.35;97408.94;3439020;28;20051;-53
2021/01/29 08:08:18;;;;;;;45.10;18.10;;;;;;;-3.90;91.40;97409.78;3438510;28;20626;-54
2021/01/29 08:10:02;;;;;;;44.83;19.63;;;;;;;-3.88;91.37;97403.09;3436865;28;20479;-52
2021/01/29 08:11:50;;;;;;;45.42;19.85;;;;;;;-3.86;91.40;97400.63;3439997;28;20057;-50
2021/01/29 08:13:48;;;;;;;42.05;18.40;;;;;;;-3.85;91.41;97394.72;3439834;28;20050;-52
2021/01/29 08:15:34;;;;;;;33.35;15.48;;;;;;;-3.82;91.78;97403.31;3436166;28;20062;-53
2021/01/29 08:17:30;;;;;;;39.45;17.33;;;;;;;-3.79;92.01;97394.94;3441581;28;20042;-54
2021/01/29 08:19:18;;;;;;;42.22;16.65;;;;;;;-3.76;91.74;97400.97;3438350;28;20050;-51
2021/01/29 08:21:32;;;;;;;42.00;16.20;;;;;;;-3.72;91.67;97399.41;3439810;28;20061;-51
2021/01/29 08:23:22;;;;;;;54.67;20.73;;;;;;;-3.68;91.80;97393.59;3428112;28;20054;-52
2021/01/29 08:25:26;;;;;;;44.40;20.95;;;;;;;-3.66;91.81;97398.72;3439109;28;20054;-52
2021/01/29 08:27:43;;;;;;;49.47;19.48;;;;;;;-3.61;92.03;97392.13;3406580;28;20050;-54
2021/01/29 08:30:02;;;;;;;52.60;20.88;;;;;;;-3.57;92.24;97391.41;3440318;28;20135;-50
2021/01/29 08:31:55;;;;;;;46.28;18.95;;;;;;;-3.51;92.17;97396.69;3439580;28;20136;-52
2021/01/29 08:33:52;;;;;;;57.13;20.10;;;;;;;-3.47;92.17;97397.66;3439202;28;20336;-53
2021/01/29 08:36:01;;;;;;;40.85;16.77;;;;;;;-3.44;92.52;97390.16;3439656;28;20081;-51
2021/01/29 08:37:51;;;;;;;63.80;24.10;;;;;;;-3.43;92.27;97390.22;3439469;28;20128;-51
2021/01/29 08:39:40;;;;;;;43.78;20.23;;;;;;;-3.40;92.27;97397.03;3438070;28;20085;-51
2021/01/29 08:41:30;;;;;;;40.25;17.50;;;;;;;-3.36;92.19;97387.84;3438262;28;20103;-54
2021/01/29 08:43:42;;;;;;;44.50;18.65;;;;;;;-3.33;92.37;97390.50;3438370;28;20090;-50
2021/01/29 08:45:32;;;;;;;50.90;20.42;;;;;;;-3.29;92.48;97394.81;3436692;28;20058;-50
2021/01/29 08:47:30;;;;;;;67.65;24.40;;;;;;;-3.23;92.67;97390.81;3440686;28;20097;-50
2021/01/29 08:49:38;;;;;;;54.25;20.15;;;;;;;-3.15;92.61;97385.97;3436821;28;20046;-53
2021/01/29 08:51:25;;;;;;;58.00;22.35;;;;;;;-3.10;92.54;97386.13;3435433;28;20511;-52
2021/01/29 08:53:50;;;;;;;43.55;19.42;;;;;;;-3.07;92.39;97378.59;3440597;28;20152;-51
2021/01/29 08:55:52;;;;;;;36.75;16.25;;;;;;;-3.06;92.39;97383.72;3419383;28;20499;-54
2021/01/29 08:57:46;;;;;;;38.92;16.77;;;;;;;-3.03;92.58;97378.72;3437836;28;20061;-54